createdAt,value
2023-06-11T00:00:52.282Z,5107.00
2023-06-11T00:01:52.258Z,5097.00
2023-06-11T00:02:52.421Z,5099.00
2023-06-11T00:03:52.326Z,5188.00
2023-06-11T00:04:52.470Z,5264.00
2023-06-11T00:05:52.306Z,5227.00
2023-06-11T00:06:52.277Z,5218.00
2023-06-11T00:07:52.297Z,5222.00
2023-06-11T00:08:52.277Z,5149.00
2023-06-11T00:09:52.314Z,5118.00
2023-06-11T00:10:52.306Z,5125.00
2023-06-11T00:11:52.291Z,5036.00
2023-06-11T00:12:52.327Z,4940.00
2023-06-11T00:13:52.298Z,4904.00
2023-06-11T00:14:52.327Z,4947.00
2023-06-11T00:15:52.407Z,4993.00
2023-06-11T00:16:52.361Z,5055.00
2023-06-11T00:17:52.424Z,5163.00
2023-06-11T00:18:52.380Z,5116.00
2023-06-11T00:19:52.412Z,5127.00
2023-06-11T00:20:52.406Z,5151.00
2023-06-11T00:21:52.420Z,5202.00
2023-06-11T00:22:52.421Z,5255.00
2023-06-11T00:23:52.466Z,5226.00
2023-06-11T00:24:52.464Z,5263.00
2023-06-11T00:25:52.509Z,5308.00
2023-06-11T00:26:52.461Z,5311.00
2023-06-11T00:27:52.506Z,5275.00
2023-06-11T00:28:52.551Z,5056.00
2023-06-11T00:29:52.532Z,4992.00
2023-06-11T00:30:52.544Z,4923.00
2023-06-11T00:31:52.595Z,4940.00
2023-06-11T00:32:52.623Z,4905.00
2023-06-11T00:33:52.558Z,4869.00
2023-06-11T00:34:52.574Z,4911.00
2023-06-11T00:35:52.591Z,4941.00
2023-06-11T00:36:52.585Z,5047.00
2023-06-11T00:37:52.599Z,5049.00
2023-06-11T00:38:52.612Z,5029.00
2023-06-11T00:39:52.655Z,5035.00
2023-06-11T00:40:52.644Z,5017.00
2023-06-11T00:41:52.677Z,5013.00
2023-06-11T00:42:52.676Z,4980.00
2023-06-11T00:43:52.680Z,4942.00
2023-06-11T00:44:52.698Z,4912.00
2023-06-11T00:45:52.969Z,4920.00
2023-06-11T00:46:52.716Z,4919.00
2023-06-11T00:47:52.871Z,4893.00
2023-06-11T00:48:52.784Z,4935.00
2023-06-11T00:49:52.778Z,4922.00
2023-06-11T00:50:52.870Z,4963.00
2023-06-11T00:51:52.783Z,4972.00
2023-06-11T00:52:52.788Z,5033.00
2023-06-11T00:53:52.814Z,5070.00
2023-06-11T00:54:52.804Z,5061.00
2023-06-11T00:55:52.884Z,5099.00
2023-06-11T00:56:52.886Z,5207.00
2023-06-11T00:57:52.878Z,5287.00
2023-06-11T00:58:52.922Z,5360.00
2023-06-11T00:59:52.897Z,5394.00
2023-06-11T01:00:52.974Z,5443.00
2023-06-11T01:01:52.954Z,5433.00
2023-06-11T01:02:53.019Z,5470.00
2023-06-11T01:03:53.054Z,5617.00
2023-06-11T01:04:53.054Z,5680.00
2023-06-11T01:05:53.100Z,5761.00
2023-06-11T01:06:53.046Z,5852.00
2023-06-11T01:07:53.115Z,5918.00
2023-06-11T01:08:53.145Z,5911.00
2023-06-11T01:09:53.193Z,5879.00
2023-06-11T01:10:53.300Z,5875.00
2023-06-11T01:11:53.227Z,5858.00
2023-06-11T01:12:53.287Z,5806.00
2023-06-11T01:13:53.344Z,5837.00
2023-06-11T01:14:53.359Z,5808.00
2023-06-11T01:15:53.472Z,5778.00
2023-06-11T01:16:53.643Z,5811.00
2023-06-11T01:17:53.554Z,5814.00
2023-06-11T01:18:53.545Z,5788.00
2023-06-11T01:19:53.666Z,5769.00
2023-06-11T01:20:53.643Z,5746.00
2023-06-11T01:21:53.748Z,5720.00
2023-06-11T01:22:53.758Z,5739.00
2023-06-11T01:23:53.888Z,5715.00
2023-06-11T01:24:53.841Z,5688.00
2023-06-11T01:25:53.875Z,5694.00
2023-06-11T01:26:53.943Z,5660.00
2023-06-11T01:27:53.989Z,5645.00
2023-06-11T01:28:54.049Z,5644.00
2023-06-11T01:29:54.104Z,5599.00
2023-06-11T01:30:54.260Z,5632.00
2023-06-11T01:31:54.261Z,5642.00
2023-06-11T01:32:54.430Z,5690.00
2023-06-11T01:33:54.351Z,5667.00
2023-06-11T01:34:54.400Z,5639.00
2023-06-11T01:35:54.429Z,5629.00
2023-06-11T01:36:54.502Z,5624.00
2023-06-11T01:37:54.531Z,5637.00
2023-06-11T01:38:54.605Z,5621.00
2023-06-11T01:39:54.799Z,5591.00
2023-06-11T01:40:54.748Z,5601.00
2023-06-11T01:41:54.815Z,5596.00
2023-06-11T01:42:54.832Z,5590.00
2023-06-11T01:43:54.953Z,5572.00
2023-06-11T01:44:54.942Z,5530.00
2023-06-11T01:45:54.985Z,5407.00
2023-06-11T01:46:55.100Z,5323.00
2023-06-11T01:47:55.140Z,5214.00
2023-06-11T01:48:55.155Z,5099.00
2023-06-11T01:49:55.182Z,5029.00
2023-06-11T01:50:55.292Z,4919.00
2023-06-11T01:51:55.357Z,4867.00
2023-06-11T01:52:55.400Z,4878.00
2023-06-11T01:53:55.463Z,4916.00
2023-06-11T01:54:55.493Z,4935.00
2023-06-11T01:55:55.592Z,4984.00
2023-06-11T01:56:55.650Z,5100.00
2023-06-11T01:57:55.670Z,5165.00
2023-06-11T01:58:55.728Z,5102.00
2023-06-11T01:59:55.829Z,5113.00
2023-06-11T02:00:55.911Z,5166.00
2023-06-11T02:01:56.045Z,5067.00
2023-06-11T02:02:56.064Z,4979.00
2023-06-11T02:03:56.093Z,4965.00
2023-06-11T02:04:56.105Z,5000.00
2023-06-11T02:05:56.153Z,5034.00
2023-06-11T02:06:56.226Z,5058.00
2023-06-11T02:07:56.269Z,5056.00
2023-06-11T02:08:56.309Z,5078.00
2023-06-11T02:09:56.338Z,5066.00
2023-06-11T02:10:56.467Z,5088.00
2023-06-11T02:11:56.512Z,5139.00
2023-06-11T02:12:56.603Z,5217.00
2023-06-11T02:13:56.654Z,5222.00
2023-06-11T02:14:56.691Z,5274.00
2023-06-11T02:15:56.760Z,5293.00
2023-06-11T02:16:56.914Z,5272.00
2023-06-11T02:17:56.931Z,5210.00
2023-06-11T02:18:56.945Z,5087.00
2023-06-11T02:19:57.078Z,5025.00
2023-06-11T02:20:57.086Z,4913.00
2023-06-11T02:21:57.102Z,4843.00
2023-06-11T02:22:57.140Z,4794.00
2023-06-11T02:23:57.185Z,4700.00
2023-06-11T02:24:57.219Z,4678.00
2023-06-11T02:25:57.301Z,4707.00
2023-06-11T02:26:57.280Z,4790.00
2023-06-11T02:27:57.355Z,4863.00
2023-06-11T02:28:57.397Z,4809.00
2023-06-11T02:29:57.473Z,4724.00
2023-06-11T02:30:57.518Z,4733.00
2023-06-11T02:31:57.568Z,4766.00
2023-06-11T02:32:57.631Z,4783.00
2023-06-11T02:33:57.641Z,4810.00
2023-06-11T02:34:57.617Z,4810.00
2023-06-11T02:35:57.693Z,4705.00
2023-06-11T02:36:57.763Z,4681.00
2023-06-11T02:37:57.826Z,4696.00
2023-06-11T02:38:57.864Z,4685.00
2023-06-11T02:39:57.964Z,4761.00
2023-06-11T02:40:58.033Z,4731.00
2023-06-11T02:41:58.058Z,4747.00
2023-06-11T02:42:58.112Z,4682.00
2023-06-11T02:43:58.138Z,4665.00
2023-06-11T02:44:58.153Z,4671.00
2023-06-11T02:45:58.225Z,4674.00
2023-06-11T02:46:58.256Z,4756.00
2023-06-11T02:47:58.319Z,4828.00
2023-06-11T02:48:58.296Z,4900.00
2023-06-11T02:49:58.370Z,4932.00
2023-06-11T02:50:58.420Z,5010.00
2023-06-11T02:51:58.482Z,5026.00
2023-06-11T02:52:58.551Z,5022.00
2023-06-11T02:53:59.573Z,5047.00
2023-06-11T02:54:58.652Z,5054.00
2023-06-11T02:55:58.778Z,5034.00
2023-06-11T02:56:58.805Z,5016.00
2023-06-11T02:57:58.816Z,5032.00
2023-06-11T02:58:58.920Z,4995.00
2023-06-11T02:59:58.967Z,5015.00
2023-06-11T03:00:59.009Z,5032.00
2023-06-11T03:01:59.089Z,5059.00
2023-06-11T03:02:59.140Z,5134.00
2023-06-11T03:03:59.186Z,5107.00
2023-06-11T03:04:59.258Z,5043.00
2023-06-11T03:06:01.746Z,5019.00
2023-06-11T03:06:59.214Z,5029.00
2023-06-11T03:07:59.180Z,5070.00
2023-06-11T03:08:59.198Z,5077.00
2023-06-11T03:09:59.180Z,5020.00
2023-06-11T03:10:59.204Z,5009.00
2023-06-11T03:11:59.191Z,5001.00
2023-06-11T03:12:59.174Z,4974.00
2023-06-11T03:13:59.183Z,5038.00
2023-06-11T03:14:59.158Z,5086.00
2023-06-11T03:15:59.172Z,5117.00
2023-06-11T03:16:59.138Z,5127.00
2023-06-11T03:17:59.193Z,5096.00
2023-06-11T03:18:59.091Z,5075.00
2023-06-11T03:19:59.105Z,5097.00
2023-06-11T03:20:59.210Z,5081.00
2023-06-11T03:21:59.130Z,5088.00
2023-06-11T03:22:59.085Z,5071.00
2023-06-11T03:23:59.131Z,5074.00
2023-06-11T03:24:59.090Z,5032.00
2023-06-11T03:25:59.078Z,4995.00
2023-06-11T03:26:59.107Z,4945.00
2023-06-11T03:27:59.056Z,4777.00
2023-06-11T03:28:59.032Z,4667.00
2023-06-11T03:29:59.058Z,4667.00
2023-06-11T03:30:59.076Z,4681.00
2023-06-11T03:31:59.133Z,4671.00
2023-06-11T03:32:59.080Z,4644.00
2023-06-11T03:33:59.016Z,4596.00
2023-06-11T03:34:59.034Z,4539.00
2023-06-11T03:35:59.035Z,4555.00
2023-06-11T03:36:59.045Z,4596.00
2023-06-11T03:37:59.016Z,4536.00
2023-06-11T03:38:58.970Z,4463.00
2023-06-11T03:39:58.985Z,4527.00
2023-06-11T03:40:58.987Z,4586.00
2023-06-11T03:41:58.951Z,4508.00
2023-06-11T03:43:00.806Z,4410.00
2023-06-11T03:43:58.965Z,4369.00
2023-06-11T03:44:58.935Z,4350.00
2023-06-11T03:45:58.964Z,4404.00
2023-06-11T03:46:58.974Z,4423.00
2023-06-11T03:47:58.990Z,4410.00
2023-06-11T03:48:58.998Z,4459.00
2023-06-11T03:49:59.003Z,4452.00
2023-06-11T03:50:59.009Z,4431.00
2023-06-11T03:51:59.024Z,4428.00
2023-06-11T03:52:59.073Z,4450.00
2023-06-11T03:53:59.172Z,4458.00
2023-06-11T03:54:59.246Z,4479.00
2023-06-11T03:55:59.332Z,4505.00
2023-06-11T03:56:59.304Z,4507.00
2023-06-11T03:57:59.314Z,4588.00
2023-06-11T03:58:59.368Z,4603.00
2023-06-11T03:59:59.441Z,4626.00
2023-06-11T04:00:59.455Z,4632.00
2023-06-11T04:01:59.521Z,4588.00
2023-06-11T04:03:00.568Z,4579.00
2023-06-11T04:03:59.645Z,4566.00
2023-06-11T04:04:59.603Z,4541.00
2023-06-11T04:05:59.664Z,4547.00
2023-06-11T04:06:59.738Z,4559.00
2023-06-11T04:07:59.780Z,4564.00
2023-06-11T04:08:59.811Z,4529.00
2023-06-11T04:09:59.852Z,4519.00
2023-06-11T04:10:59.930Z,4490.00
2023-06-11T04:11:59.913Z,4441.00
2023-06-11T04:12:59.984Z,4360.00
2023-06-11T04:13:59.985Z,4428.00
2023-06-11T04:15:00.049Z,4361.00
2023-06-11T04:16:00.118Z,4341.00
2023-06-11T04:17:00.163Z,4366.00
2023-06-11T04:18:00.213Z,4391.00
2023-06-11T04:19:00.161Z,4388.00
2023-06-11T04:20:00.226Z,4384.00
2023-06-11T04:21:00.240Z,4466.00
2023-06-11T04:22:00.266Z,4562.00
2023-06-11T04:23:00.307Z,4611.00
2023-06-11T04:24:00.327Z,4679.00
2023-06-11T04:25:00.319Z,4700.00
2023-06-11T04:26:00.382Z,4691.00
2023-06-11T04:27:00.370Z,4714.00
2023-06-11T04:28:00.390Z,4749.00
2023-06-11T04:29:00.391Z,4794.00
2023-06-11T04:30:00.451Z,4817.00
2023-06-11T04:31:00.486Z,4756.00
2023-06-11T04:32:00.526Z,4741.00
2023-06-11T04:33:00.639Z,4756.00
2023-06-11T04:34:00.529Z,4758.00
2023-06-11T04:35:00.558Z,4808.00
2023-06-11T04:36:00.579Z,4815.00
2023-06-11T04:37:00.614Z,4825.00
2023-06-11T04:38:00.614Z,4838.00
2023-06-11T04:39:00.613Z,4833.00
2023-06-11T04:40:00.630Z,4747.00
2023-06-11T04:41:00.654Z,4740.00
2023-06-11T04:42:00.668Z,4725.00
2023-06-11T04:43:00.651Z,4754.00
2023-06-11T04:44:00.672Z,4743.00
2023-06-11T04:45:00.655Z,4699.00
2023-06-11T04:46:00.666Z,4670.00
2023-06-11T04:47:00.698Z,4713.00
2023-06-11T04:48:00.729Z,4764.00
2023-06-11T04:49:00.669Z,4770.00
2023-06-11T04:50:00.669Z,4819.00
2023-06-11T04:51:00.702Z,4758.00
2023-06-11T04:52:00.712Z,4712.00
2023-06-11T04:53:00.719Z,4641.00
2023-06-11T04:54:00.730Z,4657.00
2023-06-11T04:55:00.763Z,4693.00
2023-06-11T04:56:03.087Z,4591.00
2023-06-11T04:57:00.747Z,4563.00
2023-06-11T04:58:00.707Z,4591.00
2023-06-11T04:59:00.721Z,4532.00
2023-06-11T05:00:01.453Z,4509.00
2023-06-11T05:01:00.712Z,4445.00
2023-06-11T05:02:00.776Z,4369.00
2023-06-11T05:03:00.725Z,4359.00
2023-06-11T05:04:00.790Z,4381.00
2023-06-11T05:05:00.737Z,4435.00
2023-06-11T05:06:00.701Z,4500.00
2023-06-11T05:07:00.672Z,4384.00
2023-06-11T05:08:00.663Z,4340.00
2023-06-11T05:09:00.633Z,4364.00
2023-06-11T05:10:00.658Z,4384.00
2023-06-11T05:11:00.637Z,4341.00
2023-06-11T05:12:00.653Z,4314.00
2023-06-11T05:13:00.606Z,4351.00
2023-06-11T05:14:00.602Z,4310.00
2023-06-11T05:15:00.608Z,4250.00
2023-06-11T05:16:00.629Z,4292.00
2023-06-11T05:17:00.697Z,4270.00
2023-06-11T05:18:00.642Z,4307.00
2023-06-11T05:19:00.596Z,4336.00
2023-06-11T05:20:00.597Z,4297.00
2023-06-11T05:21:00.604Z,4261.00
2023-06-11T05:22:00.553Z,4236.00
2023-06-11T05:23:00.645Z,4178.00
2023-06-11T05:24:00.629Z,4207.00
2023-06-11T05:25:00.613Z,4309.00
2023-06-11T05:26:00.560Z,4345.00
2023-06-11T05:27:00.530Z,4338.00
2023-06-11T05:28:00.499Z,4322.00
2023-06-11T05:29:00.517Z,4201.00
2023-06-11T05:30:00.522Z,4213.00
2023-06-11T05:31:00.551Z,4211.00
2023-06-11T05:32:00.565Z,4101.00
2023-06-11T05:33:00.596Z,3996.00
2023-06-11T05:34:00.496Z,3956.00
2023-06-11T05:35:00.482Z,3901.00
2023-06-11T05:36:00.489Z,3778.00
2023-06-11T05:37:00.481Z,3634.00
2023-06-11T05:38:00.460Z,3594.00
2023-06-11T05:39:00.482Z,3446.00
2023-06-11T05:40:00.481Z,3309.00
2023-06-11T05:41:00.504Z,3208.00
2023-06-11T05:42:00.530Z,3127.00
2023-06-11T05:43:00.569Z,3054.00
2023-06-11T05:44:00.547Z,2951.00
2023-06-11T05:45:00.548Z,2895.00
2023-06-11T05:46:00.683Z,2844.00
2023-06-11T05:47:00.744Z,2835.00
2023-06-11T05:48:00.611Z,2794.00
2023-06-11T05:49:00.603Z,2883.00
2023-06-11T05:50:00.619Z,3108.00
2023-06-11T05:51:00.668Z,3089.00
2023-06-11T05:52:00.711Z,3084.00
2023-06-11T05:53:00.772Z,3182.00
2023-06-11T05:54:00.821Z,3196.00
2023-06-11T05:55:00.926Z,3209.00
2023-06-11T05:56:00.902Z,3173.00
2023-06-11T05:57:00.974Z,3191.00
2023-06-11T05:58:00.979Z,3188.00
2023-06-11T05:59:01.024Z,3221.00
2023-06-11T06:00:01.069Z,3224.00
2023-06-11T06:01:01.141Z,3149.00
2023-06-11T06:02:01.161Z,2936.00
2023-06-11T06:03:01.277Z,2879.00
2023-06-11T06:04:01.370Z,2877.00
2023-06-11T06:05:01.360Z,2968.00
2023-06-11T06:06:01.369Z,2903.00
2023-06-11T06:07:01.391Z,2910.00
2023-06-11T06:08:01.343Z,2904.00
2023-06-11T06:09:01.350Z,2887.00
2023-06-11T06:10:01.374Z,2779.00
2023-06-11T06:11:01.353Z,2808.00
2023-06-11T06:12:01.425Z,2568.00
2023-06-11T06:13:01.426Z,2570.00
2023-06-11T06:14:01.475Z,2713.00
2023-06-11T06:15:01.535Z,2644.00
2023-06-11T06:16:01.680Z,2673.00
2023-06-11T06:17:01.617Z,2577.00
2023-06-11T06:18:01.600Z,2627.00
2023-06-11T06:19:01.681Z,2786.00
2023-06-11T06:20:01.750Z,2726.00
2023-06-11T06:21:01.793Z,2714.00
2023-06-11T06:22:01.818Z,2619.00
2023-06-11T06:23:01.777Z,2566.00
2023-06-11T06:24:01.912Z,2585.00
2023-06-11T06:25:02.260Z,2650.00
2023-06-11T06:26:01.919Z,2601.00
2023-06-11T06:27:01.911Z,2470.00
2023-06-11T06:28:01.942Z,2444.00
2023-06-11T06:29:01.950Z,2483.00
2023-06-11T06:30:01.983Z,2510.00
2023-06-11T06:31:02.048Z,2362.00
2023-06-11T06:32:02.266Z,2069.00
2023-06-11T06:33:02.135Z,2081.00
2023-06-11T06:34:02.132Z,2101.00
2023-06-11T06:35:02.224Z,2237.00
2023-06-11T06:36:02.197Z,2067.00
2023-06-11T06:37:02.192Z,2102.00
2023-06-11T06:38:02.242Z,2153.00
2023-06-11T06:39:02.268Z,2209.00
2023-06-11T06:40:02.330Z,2111.00
2023-06-11T06:41:02.358Z,2144.00
2023-06-11T06:42:02.395Z,2143.00
2023-06-11T06:43:02.427Z,2134.00
2023-06-11T06:44:02.478Z,2061.00
2023-06-11T06:45:02.471Z,1961.00
2023-06-11T06:46:02.501Z,1820.00
2023-06-11T06:47:02.509Z,1641.00
2023-06-11T06:48:02.585Z,1311.00
2023-06-11T06:49:02.616Z,1247.00
2023-06-11T06:50:02.637Z,1275.00
2023-06-11T06:51:03.387Z,1341.00
2023-06-11T06:52:02.641Z,1475.00
2023-06-11T06:53:02.705Z,1548.00
2023-06-11T06:54:02.687Z,1426.00
2023-06-11T06:55:02.711Z,1329.00
2023-06-11T06:56:02.730Z,1300.00
2023-06-11T06:57:02.801Z,1265.00
2023-06-11T06:58:02.788Z,1354.00
2023-06-11T06:59:02.826Z,1390.00
2023-06-11T07:00:02.827Z,1263.00
2023-06-11T07:01:02.867Z,1240.00
2023-06-11T07:02:02.833Z,1348.00
2023-06-11T07:03:02.937Z,1414.00
2023-06-11T07:04:02.964Z,1386.00
2023-06-11T07:05:03.010Z,1347.00
2023-06-11T07:06:03.098Z,1461.00
2023-06-11T07:07:03.124Z,1538.00
2023-06-11T07:08:03.090Z,1576.00
2023-06-11T07:09:03.120Z,1624.00
2023-06-11T07:10:03.202Z,1547.00
2023-06-11T07:11:03.229Z,1477.00
2023-06-11T07:12:03.277Z,1502.00
2023-06-11T07:13:03.315Z,1621.00
2023-06-11T07:14:03.372Z,1593.00
2023-06-11T07:15:03.415Z,1550.00
2023-06-11T07:16:03.468Z,1534.00
2023-06-11T07:17:03.453Z,1595.00
2023-06-11T07:18:03.555Z,1715.00
2023-06-11T07:19:03.525Z,1734.00
2023-06-11T07:20:03.665Z,1762.00
2023-06-11T07:21:03.620Z,1703.00
2023-06-11T07:22:03.629Z,1661.00
2023-06-11T07:23:03.620Z,1709.00
2023-06-11T07:24:03.736Z,1741.00
2023-06-11T07:25:03.747Z,1719.00
2023-06-11T07:26:03.874Z,1691.00
2023-06-11T07:27:03.782Z,1749.00
2023-06-11T07:28:03.775Z,1761.00
2023-06-11T07:29:03.824Z,1788.00
2023-06-11T07:30:03.846Z,1815.00
2023-06-11T07:31:03.961Z,1793.00
2023-06-11T07:32:03.891Z,1734.00
2023-06-11T07:33:03.951Z,1741.00
2023-06-11T07:34:03.930Z,1741.00
2023-06-11T07:35:03.970Z,1732.00
2023-06-11T07:36:04.023Z,1725.00
2023-06-11T07:37:04.075Z,1796.00
2023-06-11T07:38:04.066Z,1816.00
2023-06-11T07:39:04.061Z,1776.00
2023-06-11T07:40:04.167Z,1733.00
2023-06-11T07:41:04.172Z,1694.00
2023-06-11T07:42:04.182Z,1697.00
2023-06-11T07:43:04.203Z,1718.00
2023-06-11T07:44:04.233Z,1877.00
2023-06-11T07:45:04.250Z,1989.00
2023-06-11T07:46:04.417Z,2081.00
2023-06-11T07:47:04.440Z,2164.00
2023-06-11T07:48:04.404Z,2240.00
2023-06-11T07:49:04.394Z,2198.00
2023-06-11T07:50:04.383Z,2167.00
2023-06-11T07:51:04.394Z,2119.00
2023-06-11T07:52:04.466Z,1971.00
2023-06-11T07:53:04.557Z,1831.00
2023-06-11T07:54:04.527Z,1787.00
2023-06-11T07:55:04.521Z,1814.00
2023-06-11T07:56:04.558Z,1890.00
2023-06-11T07:57:04.573Z,1948.00
2023-06-11T07:58:04.595Z,1863.00
2023-06-11T07:59:04.587Z,1954.00
2023-06-11T08:00:04.672Z,2078.00
2023-06-11T08:01:04.722Z,1989.00
2023-06-11T08:02:04.774Z,1946.00
2023-06-11T08:03:04.866Z,2024.00
2023-06-11T08:04:04.858Z,2101.00
2023-06-11T08:05:04.890Z,1939.00
2023-06-11T08:06:04.949Z,1836.00
2023-06-11T08:07:04.874Z,1827.00
2023-06-11T08:08:04.921Z,1868.00
2023-06-11T08:09:04.963Z,1621.00
2023-06-11T08:10:05.037Z,1599.00
2023-06-11T08:11:05.117Z,1605.00
2023-06-11T08:12:05.147Z,1626.00
2023-06-11T08:13:05.171Z,1607.00
2023-06-11T08:14:05.306Z,1571.00
2023-06-11T08:15:05.244Z,1615.00
2023-06-11T08:16:05.326Z,1511.00
2023-06-11T08:17:05.492Z,1429.00
2023-06-11T08:18:05.509Z,1380.00
2023-06-11T08:19:05.434Z,1514.00
2023-06-11T08:20:05.506Z,1557.00
2023-06-11T08:21:05.515Z,1459.00
2023-06-11T08:22:05.548Z,1410.00
2023-06-11T08:23:05.533Z,1547.00
2023-06-11T08:24:05.629Z,1594.00
2023-06-11T08:25:05.626Z,1313.00
2023-06-11T08:26:05.646Z,1248.00
2023-06-11T08:27:05.679Z,1331.00
2023-06-11T08:28:05.728Z,1441.00
2023-06-11T08:29:05.728Z,1136.00
2023-06-11T08:30:05.792Z,1190.00
2023-06-11T08:31:05.808Z,1085.00
2023-06-11T08:32:05.897Z,963.00
2023-06-11T08:33:05.856Z,831.00
2023-06-11T08:34:05.881Z,921.00
2023-06-11T08:35:05.896Z,1123.00
2023-06-11T08:36:05.933Z,1126.00
2023-06-11T08:37:05.950Z,1010.00
2023-06-11T08:38:05.948Z,985.00
2023-06-11T08:39:05.948Z,1232.00
2023-06-11T08:40:05.936Z,1150.00
2023-06-11T08:41:06.002Z,1085.00
2023-06-11T08:42:05.957Z,1027.00
2023-06-11T08:43:05.982Z,926.00
2023-06-11T08:44:06.010Z,853.00
2023-06-11T08:45:06.024Z,910.00
2023-06-11T08:46:06.076Z,893.00
2023-06-11T08:47:06.065Z,827.00
2023-06-11T08:48:06.110Z,665.00
2023-06-11T08:49:06.048Z,728.00
2023-06-11T08:50:06.098Z,722.00
2023-06-11T08:51:06.123Z,651.00
2023-06-11T08:52:06.200Z,502.00
2023-06-11T08:53:06.191Z,441.00
2023-06-11T08:54:06.252Z,400.00
2023-06-11T08:55:06.297Z,400.00
2023-06-11T08:56:06.278Z,400.00
2023-06-11T08:57:06.272Z,400.00
2023-06-11T08:58:06.288Z,400.00
2023-06-11T08:59:06.290Z,468.00
2023-06-11T09:00:09.367Z,583.00
2023-06-11T09:01:06.318Z,658.00
2023-06-11T09:02:06.344Z,802.00
2023-06-11T09:03:06.345Z,863.00
2023-06-11T09:04:06.372Z,895.00
2023-06-11T09:05:06.320Z,648.00
2023-06-11T09:06:06.234Z,580.00
2023-06-11T09:07:06.271Z,580.00
2023-06-11T09:08:06.245Z,666.00
2023-06-11T09:09:06.255Z,755.00
2023-06-11T09:10:06.274Z,687.00
2023-06-11T09:11:06.214Z,665.00
2023-06-11T09:12:06.229Z,812.00
2023-06-11T09:13:06.177Z,906.00
2023-06-11T09:14:06.190Z,1327.00
2023-06-11T09:15:06.193Z,1058.00
2023-06-11T09:16:06.265Z,1102.00
2023-06-11T09:17:06.193Z,1198.00
2023-06-11T09:18:09.650Z,1267.00
2023-06-11T09:19:07.203Z,1126.00
2023-06-11T09:20:06.153Z,930.00
2023-06-11T09:21:06.181Z,1044.00
2023-06-11T09:22:06.148Z,1077.00
2023-06-11T09:23:06.147Z,1015.00
2023-06-11T09:24:06.161Z,905.00
2023-06-11T09:25:06.105Z,853.00
2023-06-11T09:26:06.117Z,957.00
2023-06-11T09:27:06.090Z,932.00
2023-06-11T09:28:06.078Z,1277.00
2023-06-11T09:29:06.118Z,1552.00
2023-06-11T09:30:06.076Z,1374.00
2023-06-11T09:31:06.096Z,1071.00
2023-06-11T09:32:15.933Z,1102.00
2023-06-11T09:33:07.148Z,1105.00
2023-06-11T09:34:06.049Z,1154.00
2023-06-11T09:35:06.051Z,1266.00
2023-06-11T09:36:06.068Z,1360.00
2023-06-11T09:37:06.065Z,1567.00
2023-06-11T09:38:06.024Z,1442.00
2023-06-11T09:39:05.994Z,1398.00
2023-06-11T09:40:06.020Z,1359.00
2023-06-11T09:41:06.028Z,1223.00
2023-06-11T09:42:06.066Z,1460.00
2023-06-11T09:43:06.208Z,1890.00
2023-06-11T09:44:06.193Z,1711.00
2023-06-11T09:45:06.257Z,1677.00
2023-06-11T09:46:06.370Z,1552.00
2023-06-11T09:47:08.228Z,1353.00
2023-06-11T09:48:06.473Z,1432.00
2023-06-11T09:49:06.326Z,1547.00
2023-06-11T09:50:06.378Z,1457.00
2023-06-11T09:51:06.376Z,746.00
2023-06-11T09:52:06.352Z,644.00
2023-06-11T09:53:06.355Z,666.00
2023-06-11T09:54:06.317Z,760.00
2023-06-11T09:55:06.345Z,793.00
2023-06-11T09:56:11.556Z,881.00
2023-06-11T09:57:07.302Z,893.00
2023-06-11T09:58:06.316Z,938.00
2023-06-11T09:59:06.348Z,1001.00
2023-06-11T10:00:06.246Z,1161.00
2023-06-11T10:01:07.695Z,1433.00
2023-06-11T10:02:06.268Z,1680.00
2023-06-11T10:03:06.372Z,1766.00
2023-06-11T10:04:06.250Z,1704.00
2023-06-11T10:05:06.271Z,1495.00
2023-06-11T10:06:06.248Z,679.00
2023-06-11T10:07:06.230Z,640.00
2023-06-11T10:08:06.297Z,685.00
2023-06-11T10:09:06.238Z,624.00
2023-06-11T10:10:06.196Z,679.00
2023-06-11T10:11:06.252Z,754.00
2023-06-11T10:12:06.222Z,804.00
2023-06-11T10:13:06.150Z,756.00
2023-06-11T10:14:06.201Z,917.00
2023-06-11T10:15:06.240Z,740.00
2023-06-11T10:16:06.321Z,674.00
2023-06-11T10:17:06.351Z,685.00
2023-06-11T10:18:06.467Z,586.00
2023-06-11T10:19:06.431Z,542.00
2023-06-11T10:20:06.493Z,508.00
2023-06-11T10:21:06.577Z,577.00
2023-06-11T10:22:06.582Z,602.00
2023-06-11T10:23:07.752Z,540.00
2023-06-11T10:24:06.633Z,469.00
2023-06-11T10:25:06.608Z,526.00
2023-06-11T10:26:06.663Z,491.00
2023-06-11T10:27:06.765Z,555.00
2023-06-11T10:28:06.590Z,575.00
2023-06-11T10:29:07.313Z,514.00
2023-06-11T10:30:06.733Z,500.00
2023-06-11T10:31:06.760Z,500.00
2023-06-11T10:32:06.784Z,498.00
2023-06-11T10:33:07.019Z,503.00
2023-06-11T10:34:06.973Z,562.00
2023-06-11T10:35:07.054Z,643.00
2023-06-11T10:36:07.031Z,594.00
2023-06-11T10:37:07.077Z,666.00
2023-06-11T10:38:07.124Z,630.00
2023-06-11T10:39:07.651Z,648.00
2023-06-11T10:40:07.278Z,654.00
2023-06-11T10:41:07.271Z,790.00
2023-06-11T10:42:07.231Z,787.00
2023-06-11T10:43:07.328Z,653.00
2023-06-11T10:44:07.296Z,624.00
2023-06-11T10:45:07.308Z,568.00
2023-06-11T10:46:07.321Z,669.00
2023-06-11T10:47:07.397Z,888.00
2023-06-11T10:48:07.535Z,734.00
2023-06-11T10:49:07.445Z,705.00
2023-06-11T10:50:07.604Z,928.00
2023-06-11T10:51:07.604Z,890.00
2023-06-11T10:52:07.654Z,892.00
2023-06-11T10:53:07.710Z,686.00
2023-06-11T10:54:07.732Z,817.00
2023-06-11T10:55:07.913Z,665.00
2023-06-11T10:56:07.815Z,593.00
2023-06-11T10:57:07.857Z,659.00
2023-06-11T10:58:07.884Z,1020.00
2023-06-11T10:59:07.973Z,974.00
2023-06-11T11:00:08.007Z,899.00
2023-06-11T11:01:07.978Z,836.00
2023-06-11T11:02:08.053Z,720.00
2023-06-11T11:03:08.077Z,645.00
2023-06-11T11:04:08.097Z,947.00
2023-06-11T11:05:08.158Z,766.00
2023-06-11T11:06:08.156Z,642.00
2023-06-11T11:07:08.221Z,639.00
2023-06-11T11:08:08.226Z,846.00
2023-06-11T11:09:08.250Z,632.00
2023-06-11T11:10:08.257Z,571.00
2023-06-11T11:11:08.300Z,540.00
2023-06-11T11:12:08.264Z,650.00
2023-06-11T11:13:08.269Z,545.00
2023-06-11T11:14:08.271Z,500.00
2023-06-11T11:15:08.437Z,503.00
2023-06-11T11:16:08.374Z,504.00
2023-06-11T11:17:08.413Z,539.00
2023-06-11T11:18:08.372Z,571.00
2023-06-11T11:19:08.356Z,683.00
2023-06-11T11:20:08.410Z,641.00
2023-06-11T11:21:08.466Z,509.00
2023-06-11T11:22:08.531Z,536.00
2023-06-11T11:23:08.598Z,510.00
2023-06-11T11:24:08.665Z,449.00
2023-06-11T11:25:08.884Z,529.00
2023-06-11T11:26:08.676Z,590.00
2023-06-11T11:27:08.701Z,592.00
2023-06-11T11:28:08.679Z,587.00
2023-06-11T11:29:08.687Z,708.00
2023-06-11T11:30:08.822Z,829.00
2023-06-11T11:31:08.738Z,627.00
2023-06-11T11:32:08.795Z,658.00
2023-06-11T11:33:08.910Z,973.00
2023-06-11T11:34:08.909Z,1106.00
2023-06-11T11:35:08.921Z,1097.00
2023-06-11T11:36:09.046Z,909.00
2023-06-11T11:37:09.047Z,820.00
2023-06-11T11:38:09.167Z,984.00
2023-06-11T11:39:09.057Z,1030.00
2023-06-11T11:40:09.157Z,1012.00
2023-06-11T11:41:09.170Z,1096.00
2023-06-11T11:42:09.152Z,1116.00
2023-06-11T11:43:09.199Z,1216.00
2023-06-11T11:44:09.191Z,1319.00
2023-06-11T11:45:09.144Z,1355.00
2023-06-11T11:46:09.226Z,1549.00
2023-06-11T11:47:09.255Z,1636.00
2023-06-11T11:48:09.605Z,1596.00
2023-06-11T11:49:09.335Z,1617.00
2023-06-11T11:50:09.553Z,1805.00
2023-06-11T11:51:09.453Z,1805.00
2023-06-11T11:52:09.441Z,1465.00
2023-06-11T11:53:09.448Z,1204.00
2023-06-11T11:54:09.519Z,1051.00
2023-06-11T11:55:09.578Z,1021.00
2023-06-11T11:56:09.597Z,1135.00
2023-06-11T11:57:09.587Z,678.00
2023-06-11T11:58:09.570Z,653.00
2023-06-11T11:59:09.599Z,535.00
2023-06-11T12:00:09.894Z,504.00
2023-06-11T12:01:09.621Z,500.00
2023-06-11T12:02:09.714Z,517.00
2023-06-11T12:03:09.824Z,518.00
2023-06-11T12:04:09.765Z,536.00
2023-06-11T12:05:09.836Z,521.00
2023-06-11T12:06:10.010Z,412.00
2023-06-11T12:07:09.921Z,400.00
2023-06-11T12:08:09.972Z,492.00
2023-06-11T12:09:10.007Z,451.00
2023-06-11T12:10:10.365Z,443.00
2023-06-11T12:11:10.498Z,509.00